METAR Data
IDs: Format: Raw Decoded Include TAF

Data at: 0129 UTC 24 Oct 2019

METAR for:KTNU (Newton Muni, IA, US)
Text:KTNU 240115Z AUTO 36012G18KT 10SM FEW025 OVC030 05/04 A3004 RMK A01
Temperature: 5.0°C ( 41°F)
Dewpoint: 4.0°C ( 39°F) [RH = 93%]
Pressure (altimeter):30.04 inches Hg (1017.4 mb)
Winds:from the N (360 degrees) at 14 MPH (12 knots; 6.2 m/s) gusting to 21 MPH (18 knots; 9.3 m/s)
Visibility:10 or more sm (16+ km)
Ceiling:3000 feet AGL
Clouds: few clouds at 2500 feet AGL, overcast cloud deck at 3000 feet AGL
QC Flag:automated observation with no human augmentation